Pitmedden, United Kingdom
Current Conditions -  °F | °C
As of 10:50 PM on Tuesday 21 Oct 2014 (Local Time) from EGPD Reporting Station
Clear Clear  
Wind Chill: 35°   Ceiling: Unl
Heat Index: 43°   Visibility: 6mi
Dew Point: 36°   Wind: 17mph
Humidity: 76%   Direction: 290°WNW
Pressure: 29.8"   Gusts: NA
Location:  57.34°N, 2.18°W
Report Text: EGPD 212150Z 29015KT CAVOK 06/02 Q1009
Loading
Personal Weather Stations






























Interactive Weather Map
Tropical Storm Tracking
New forecast layout! Learn more

10-Day Weather Forecast

Advertisements
Track Severe Weather on mobile